Time;durP1;ratioP1;P1;durP2;ratioP2;P2;SDS_P1;SDS_P2;PMS_P1;PMS_P2;Temp;Humidity;BMP_temperature;BMP_pressure;BME280_temperature;BME280_humidity;BME280_pressure;Samples;Min_cycle;Max_cycle;Signal;HPM_P1;HPM_P2
2022/09/21 00:00:50;;;;;;;3.10;2.90;;;;;;;;;;5016355;28;20492;-64
2022/09/21 00:03:16;;;;;;;3.97;3.63;;;;;;;;;;5016238;28;20884;-63
2022/09/21 00:05:42;;;;;;;9.60;3.27;;;;;;;;;;5016225;28;20796;-65
2022/09/21 00:08:10;;;;;;;6.50;3.40;;;;;;;;;;5016140;28;20405;-67
2022/09/21 00:10:36;;;;;;;3.93;3.30;;;;;;;;;;5016161;28;20468;-68
2022/09/21 00:13:02;;;;;;;8.17;3.80;;;;;;;;;;5016097;28;20417;-65
2022/09/21 00:15:28;;;;;;;5.30;3.90;;;;;;;;;;4998423;28;20451;-68
2022/09/21 00:17:55;;;;;;;6.93;3.60;;;;;;;;;;5015910;28;20990;-67
2022/09/21 00:20:22;;;;;;;9.10;4.00;;;;;;;;;;5015980;28;20978;-64
2022/09/21 00:22:48;;;;;;;4.13;3.43;;;;;;;;;;5015870;28;20810;-67
2022/09/21 00:25:14;;;;;;;7.00;3.93;;;;;;;;;;5015855;28;20884;-67
2022/09/21 00:27:40;;;;;;;4.30;3.97;;;;;;;;;;5015788;28;20413;-67
2022/09/21 00:30:07;;;;;;;3.87;3.70;;;;;;;;;;5015712;28;20496;-68
2022/09/21 00:32:34;;;;;;;5.90;3.53;;;;;;;;;;5015701;28;20417;-67
2022/09/21 00:35:04;;;;;;;4.50;4.00;;;;;;;;;;5015705;28;20499;-66
2022/09/21 00:37:30;;;;;;;5.50;4.27;;;;;;;;;;5015555;28;20471;-69
2022/09/21 00:39:56;;;;;;;7.80;3.80;;;;;;;;;;5015560;28;20415;-68
2022/09/21 00:42:24;;;;;;;3.40;3.30;;;;;;;;;;5015470;28;20429;-66
2022/09/21 00:44:50;;;;;;;6.30;3.30;;;;;;;;;;5015746;28;20432;-67
2022/09/21 00:47:18;;;;;;;4.90;2.83;;;;;;;;;;4997829;28;20972;-66
2022/09/21 00:49:46;;;;;;;4.00;3.57;;;;;;;;;;5015399;28;20957;-67
2022/09/21 00:52:13;;;;;;;5.73;4.27;;;;;;;;;;5015310;28;20477;-66
2022/09/21 00:54:58;;;;;;;3.43;3.33;;;;;;;;;;5015258;28;20449;-68
2022/09/21 00:57:25;;;;;;;4.73;3.30;;;;;;;;;;5015142;28;20471;-68
2022/09/21 00:59:55;;;;;;;3.17;2.83;;;;;;;;;;5014665;28;20869;-67
2022/09/21 01:02:21;;;;;;;4.73;3.20;;;;;;;;;;5015167;28;20408;-68
2022/09/21 01:04:47;;;;;;;7.23;3.60;;;;;;;;;;5015029;28;20504;-67
2022/09/21 01:07:17;;;;;;;3.50;3.40;;;;;;;;;;5015017;28;20839;-66
2022/09/21 01:09:44;;;;;;;3.90;3.33;;;;;;;;;;5015032;28;20405;-66
2022/09/21 01:12:13;;;;;;;5.50;3.10;;;;;;;;;;5014989;28;20847;-68
2022/09/21 01:14:58;;;;;;;3.13;2.90;;;;;;;;;;4997358;28;20443;-67
2022/09/21 01:17:30;;;;;;;3.67;3.40;;;;;;;;;;5014787;28;20506;-66
2022/09/21 01:20:05;;;;;;;3.40;3.17;;;;;;;;;;5014844;28;20511;-67
2022/09/21 01:22:46;;;;;;;3.10;2.90;;;;;;;;;;5014826;28;20503;-66
2022/09/21 01:25:20;;;;;;;4.33;3.27;;;;;;;;;;5014801;28;20408;-68
2022/09/21 01:28:04;;;;;;;4.50;3.23;;;;;;;;;;5014631;28;20419;-67
2022/09/21 01:30:32;;;;;;;3.50;2.90;;;;;;;;;;5014586;28;20403;-66
2022/09/21 01:33:15;;;;;;;5.90;3.77;;;;;;;;;;5014579;28;20790;-64
2022/09/21 01:35:44;;;;;;;5.53;3.40;;;;;;;;;;4996789;28;20412;-68
2022/09/21 01:38:13;;;;;;;5.07;3.47;;;;;;;;;;5014391;28;20872;-68
2022/09/21 01:40:42;;;;;;;6.60;3.30;;;;;;;;;;5014739;28;20870;-67
2022/09/21 01:43:10;;;;;;;3.50;3.20;;;;;;;;;;5014426;28;20403;-68
2022/09/21 01:45:42;;;;;;;3.50;3.10;;;;;;;;;;5014386;28;20448;-68
2022/09/21 01:48:10;;;;;;;3.93;3.13;;;;;;;;;;5014529;28;20393;-65
2022/09/21 01:50:38;;;;;;;3.80;3.50;;;;;;;;;;5014277;28;20927;-67
2022/09/21 01:53:18;;;;;;;4.03;3.80;;;;;;;;;;4996494;28;20476;-66
2022/09/21 01:55:57;;;;;;;3.67;3.37;;;;;;;;;;5014165;28;20420;-69
2022/09/21 01:58:23;;;;;;;3.97;3.63;;;;;;;;;;5014120;28;20927;-67
2022/09/21 02:00:52;;;;;;;3.67;3.37;;;;;;;;;;5014166;28;20400;-70
2022/09/21 02:03:21;;;;;;;3.77;3.47;;;;;;;;;;5014233;28;20409;-70
2022/09/21 02:05:47;;;;;;;3.03;2.83;;;;;;;;;;5014209;28;20459;-71
2022/09/21 02:08:13;;;;;;;4.27;3.20;;;;;;;;;;5014202;28;20439;-71
2022/09/21 02:10:50;;;;;;;6.93;3.90;;;;;;;;;;5013953;28;20424;-69
2022/09/21 02:13:17;;;;;;;6.07;3.13;;;;;;;;;;5013920;28;20392;-71
2022/09/21 02:16:02;;;;;;;3.57;3.27;;;;;;;;;;5013959;28;20455;-71
2022/09/21 02:18:42;;;;;;;2.97;2.63;;;;;;;;;;5013879;28;20471;-69
2022/09/21 02:21:14;;;;;;;3.33;3.13;;;;;;;;;;4996174;28;20420;-69
2022/09/21 02:23:51;;;;;;;3.77;3.40;;;;;;;;;;5013741;28;20405;-68
2022/09/21 02:26:23;;;;;;;3.67;3.47;;;;;;;;;;5013949;28;20400;-67
2022/09/21 02:28:51;;;;;;;6.33;3.30;;;;;;;;;;5014037;28;20494;-66
2022/09/21 02:31:40;;;;;;;3.20;3.00;;;;;;;;;;5014060;28;20440;-68
2022/09/21 02:34:14;;;;;;;3.20;2.90;;;;;;;;;;5013773;28;20979;-67
2022/09/21 02:36:48;;;;;;;4.80;3.67;;;;;;;;;;5013674;28;20918;-68
2022/09/21 02:39:18;;;;;;;3.47;3.30;;;;;;;;;;5013975;28;20424;-63
2022/09/21 02:41:56;;;;;;;5.03;3.03;;;;;;;;;;5013663;28;20420;-66
2022/09/21 02:44:34;;;;;;;3.70;3.50;;;;;;;;;;5013678;28;20896;-66
2022/09/21 02:47:03;;;;;;;4.10;3.70;;;;;;;;;;5013834;28;20407;-68
2022/09/21 02:49:33;;;;;;;3.93;3.30;;;;;;;;;;5013492;28;20512;-66
2022/09/21 02:52:01;;;;;;;3.83;3.53;;;;;;;;;;5013296;28;20457;-68
2022/09/21 02:54:29;;;;;;;3.57;3.33;;;;;;;;;;5013492;28;20496;-68
2022/09/21 02:56:55;;;;;;;4.67;3.60;;;;;;;;;;5013407;28;20462;-67
2022/09/21 02:59:22;;;;;;;5.67;4.23;;;;;;;;;;5013449;28;20428;-68
2022/09/21 03:01:48;;;;;;;3.13;3.03;;;;;;;;;;5013473;28;20393;-65
2022/09/21 03:04:14;;;;;;;3.67;3.37;;;;;;;;;;5013346;28;20421;-67
2022/09/21 03:06:40;;;;;;;5.43;3.67;;;;;;;;;;5013338;28;20840;-68
2022/09/21 03:09:07;;;;;;;3.50;3.40;;;;;;;;;;5013435;28;20408;-67
2022/09/21 03:11:34;;;;;;;7.30;3.97;;;;;;;;;;5013355;28;20508;-65
2022/09/21 03:14:01;;;;;;;3.93;3.33;;;;;;;;;;5013310;28;20407;-68
2022/09/21 03:16:27;;;;;;;7.80;3.50;;;;;;;;;;5013231;28;20590;-68
2022/09/21 03:18:53;;;;;;;3.13;2.87;;;;;;;;;;4995759;28;21043;-66
2022/09/21 03:21:19;;;;;;;6.57;3.17;;;;;;;;;;5013289;28;20420;-66
2022/09/21 03:23:45;;;;;;;3.67;3.37;;;;;;;;;;4998107;28;20844;-68
2022/09/21 03:26:11;;;;;;;6.83;3.77;;;;;;;;;;5016926;28;20419;-66
2022/09/21 03:28:37;;;;;;;4.40;3.57;;;;;;;;;;5016924;28;20416;-67
2022/09/21 03:31:03;;;;;;;4.10;3.70;;;;;;;;;;5016862;28;20404;-67
2022/09/21 03:33:29;;;;;;;3.60;3.50;;;;;;;;;;5016834;28;20416;-67
2022/09/21 03:35:54;;;;;;;3.53;3.30;;;;;;;;;;5016816;28;20412;-68
2022/09/21 03:38:21;;;;;;;4.73;3.20;;;;;;;;;;4999349;28;20436;-67
2022/09/21 03:40:48;;;;;;;3.73;3.40;;;;;;;;;;5016799;28;20408;-66
2022/09/21 03:43:14;;;;;;;3.93;3.50;;;;;;;;;;5016643;28;20413;-68
2022/09/21 03:45:41;;;;;;;3.70;3.40;;;;;;;;;;5016568;28;20409;-66
2022/09/21 03:48:07;;;;;;;6.57;3.73;;;;;;;;;;5016514;28;20412;-66
2022/09/21 03:50:33;;;;;;;4.00;3.20;;;;;;;;;;5016529;28;20427;-67
2022/09/21 03:52:59;;;;;;;3.57;3.23;;;;;;;;;;5016426;28;20468;-65
2022/09/21 03:55:25;;;;;;;4.57;4.13;;;;;;;;;;5016579;28;20888;-68
2022/09/21 03:57:51;;;;;;;3.10;2.90;;;;;;;;;;5016377;28;20554;-68
2022/09/21 04:00:17;;;;;;;8.00;3.60;;;;;;;;;;5016312;28;20448;-68
2022/09/21 04:02:43;;;;;;;4.00;3.70;;;;;;;;;;5016340;28;20492;-65
2022/09/21 04:05:10;;;;;;;4.00;3.60;;;;;;;;;;5016457;28;20459;-67
2022/09/21 04:07:37;;;;;;;4.33;3.90;;;;;;;;;;5016464;28;20411;-68
2022/09/21 04:10:04;;;;;;;6.07;3.70;;;;;;;;;;4998700;28;20437;-63
2022/09/21 04:12:31;;;;;;;4.50;4.00;;;;;;;;;;5016195;28;20429;-63
2022/09/21 04:14:57;;;;;;;4.77;4.27;;;;;;;;;;5016163;28;20409;-62
2022/09/21 04:17:23;;;;;;;6.10;4.40;;;;;;;;;;5015849;28;20480;-64
2022/09/21 04:19:49;;;;;;;4.73;4.40;;;;;;;;;;5016004;28;20428;-64
2022/09/21 04:22:15;;;;;;;5.30;4.70;;;;;;;;;;5015996;28;20397;-68
2022/09/21 04:24:41;;;;;;;6.13;4.53;;;;;;;;;;4998351;28;20429;-63
2022/09/21 04:27:08;;;;;;;7.10;4.90;;;;;;;;;;5015893;28;20424;-63
2022/09/21 04:29:34;;;;;;;8.37;5.10;;;;;;;;;;5015776;28;20907;-66
2022/09/21 04:32:00;;;;;;;6.40;4.33;;;;;;;;;;5015770;28;20911;-68
2022/09/21 04:34:26;;;;;;;8.80;4.97;;;;;;;;;;4996764;28;20449;-66
2022/09/21 04:36:53;;;;;;;5.70;4.40;;;;;;;;;;5015464;28;20475;-65
2022/09/21 04:39:19;;;;;;;4.40;4.13;;;;;;;;;;5015899;28;20420;-65
2022/09/21 04:41:45;;;;;;;7.47;4.40;;;;;;;;;;5015487;28;20424;-66
2022/09/21 04:44:11;;;;;;;4.53;4.10;;;;;;;;;;5015578;28;20405;-68
2022/09/21 04:46:37;;;;;;;5.33;4.93;;;;;;;;;;5015449;28;20519;-63
2022/09/21 04:49:03;;;;;;;11.43;5.77;;;;;;;;;;5015379;28;20409;-66
2022/09/21 04:51:30;;;;;;;4.97;4.77;;;;;;;;;;5015541;28;20424;-66
2022/09/21 04:53:56;;;;;;;5.33;4.60;;;;;;;;;;5015148;28;20472;-66
2022/09/21 04:56:22;;;;;;;6.07;5.43;;;;;;;;;;5015220;28;20460;-65
2022/09/21 04:58:48;;;;;;;4.90;4.50;;;;;;;;;;5015131;28;20447;-68
2022/09/21 05:01:14;;;;;;;5.53;4.87;;;;;;;;;;5015098;28;20504;-68
2022/09/21 05:03:40;;;;;;;5.63;4.60;;;;;;;;;;4997547;28;20439;-68
2022/09/21 05:06:08;;;;;;;4.97;4.57;;;;;;;;;;5015031;28;20409;-67
2022/09/21 05:11:22;;;;;;;6.33;5.70;;;;;;;;;;5015027;28;20399;-67
2022/09/21 05:13:48;;;;;;;10.00;5.17;;;;;;;;;;5014960;28;20475;-68
2022/09/21 05:16:15;;;;;;;7.00;4.87;;;;;;;;;;5014802;28;20443;-65
2022/09/21 05:18:41;;;;;;;6.07;5.57;;;;;;;;;;5014874;28;20413;-64
2022/09/21 05:21:07;;;;;;;7.93;4.63;;;;;;;;;;5014775;28;20459;-64
2022/09/21 05:23:33;;;;;;;5.53;5.03;;;;;;;;;;5014801;28;20469;-65
2022/09/21 05:26:00;;;;;;;9.40;4.90;;;;;;;;;;5014741;28;20420;-67
2022/09/21 05:28:26;;;;;;;5.50;4.87;;;;;;;;;;5014641;28;20892;-64
2022/09/21 05:30:52;;;;;;;6.60;5.07;;;;;;;;;;5014614;28;20478;-67
2022/09/21 05:33:20;;;;;;;5.83;5.40;;;;;;;;;;5014856;28;20884;-64
2022/09/21 05:35:46;;;;;;;6.57;6.00;;;;;;;;;;5014542;28;20479;-64
2022/09/21 05:38:18;;;;;;;6.30;5.70;;;;;;;;;;5014418;28;20971;-69
2022/09/21 05:40:49;;;;;;;12.67;6.63;;;;;;;;;;5014454;28;20420;-63
2022/09/21 05:43:15;;;;;;;7.83;7.20;;;;;;;;;;5014694;28;20409;-66
2022/09/21 05:45:44;;;;;;;8.20;6.80;;;;;;;;;;5014020;28;20423;-67
2022/09/21 05:48:13;;;;;;;7.90;7.33;;;;;;;;;;5014339;28;20476;-68
2022/09/21 05:50:52;;;;;;;10.67;9.57;;;;;;;;;;4996619;28;20851;-65
2022/09/21 05:53:33;;;;;;;8.40;7.63;;;;;;;;;;5014109;28;20464;-65
2022/09/21 05:56:00;;;;;;;11.80;8.80;;;;;;;;;;5014197;28;20412;-62
2022/09/21 05:58:26;;;;;;;10.47;8.20;;;;;;;;;;5013978;28;20425;-67
2022/09/21 06:01:01;;;;;;;9.17;8.23;;;;;;;;;;4996491;28;20436;-64
2022/09/21 06:03:31;;;;;;;10.07;8.90;;;;;;;;;;5014136;28;20821;-64
2022/09/21 06:05:58;;;;;;;14.03;8.63;;;;;;;;;;5013982;28;20413;-64
2022/09/21 06:08:27;;;;;;;12.50;9.43;;;;;;;;;;5014021;28;20508;-64
2022/09/21 06:10:53;;;;;;;18.27;13.27;;;;;;;;;;5013845;28;20405;-62
2022/09/21 06:13:19;;;;;;;17.70;11.90;;;;;;;;;;5013870;28;20413;-62
2022/09/21 06:15:45;;;;;;;15.20;13.20;;;;;;;;;;4996266;28;20983;-62
2022/09/21 06:18:11;;;;;;;20.50;12.57;;;;;;;;;;5013810;28;20955;-64
2022/09/21 06:20:37;;;;;;;17.00;12.40;;;;;;;;;;5013906;28;20409;-62
2022/09/21 06:23:05;;;;;;;23.53;13.80;;;;;;;;;;5013819;28;20428;-63
2022/09/21 06:25:31;;;;;;;13.90;12.13;;;;;;;;;;5013777;28;20417;-62
2022/09/21 06:28:03;;;;;;;16.10;13.33;;;;;;;;;;5013220;28;20405;-66
2022/09/21 06:30:30;;;;;;;22.70;13.57;;;;;;;;;;5013579;28;20411;-63
2022/09/21 06:32:59;;;;;;;19.77;13.33;;;;;;;;;;5013378;28;20405;-66
2022/09/21 06:35:25;;;;;;;16.57;13.77;;;;;;;;;;5013260;28;20420;-67
2022/09/21 06:37:51;;;;;;;14.43;12.67;;;;;;;;;;5013660;28;20530;-65
2022/09/21 06:40:17;;;;;;;23.60;15.27;;;;;;;;;;5013632;28;20416;-64
2022/09/21 06:42:43;;;;;;;17.60;13.43;;;;;;;;;;5013354;28;20405;-69
2022/09/21 06:45:09;;;;;;;18.37;13.00;;;;;;;;;;5013343;28;20423;-62
2022/09/21 06:47:35;;;;;;;15.73;13.10;;;;;;;;;;5013468;28;20889;-67
2022/09/21 06:50:01;;;;;;;20.87;13.00;;;;;;;;;;5013358;28;20412;-66
2022/09/21 06:52:27;;;;;;;17.10;13.77;;;;;;;;;;5013036;28;20472;-66
2022/09/21 06:54:53;;;;;;;14.37;12.83;;;;;;;;;;5012978;28;20413;-66
2022/09/21 06:57:19;;;;;;;14.13;12.50;;;;;;;;;;5013410;28;20494;-63
2022/09/21 06:59:45;;;;;;;16.07;14.20;;;;;;;;;;5017084;28;20503;-67
2022/09/21 07:02:11;;;;;;;53.57;38.97;;;;;;;;;;5017298;28;20412;-68
2022/09/21 07:04:37;;;;;;;18.33;13.97;;;;;;;;;;5017369;28;20911;-64
2022/09/21 07:07:04;;;;;;;18.83;13.13;;;;;;;;;;5017259;28;20416;-65
2022/09/21 07:09:30;;;;;;;14.80;13.20;;;;;;;;;;5017326;28;20942;-66
2022/09/21 07:11:57;;;;;;;17.27;13.70;;;;;;;;;;5017263;28;20493;-65
2022/09/21 07:14:23;;;;;;;15.53;13.87;;;;;;;;;;5017075;28;20408;-65
2022/09/21 07:16:49;;;;;;;16.30;12.93;;;;;;;;;;5017243;28;20468;-65
2022/09/21 07:19:15;;;;;;;18.03;13.07;;;;;;;;;;5017289;28;20801;-66
2022/09/21 07:21:41;;;;;;;31.17;22.37;;;;;;;;;;5016862;28;20818;-67
2022/09/21 07:24:07;;;;;;;16.10;14.17;;;;;;;;;;5016975;28;20396;-66
2022/09/21 07:26:33;;;;;;;12.83;11.57;;;;;;;;;;5017047;28;20459;-64
2022/09/21 07:28:59;;;;;;;12.80;11.30;;;;;;;;;;5016882;28;20432;-65
2022/09/21 07:31:25;;;;;;;14.00;12.10;;;;;;;;;;5016903;28;20443;-65
2022/09/21 07:33:55;;;;;;;11.17;10.07;;;;;;;;;;5016824;28;20412;-66
2022/09/21 07:36:21;;;;;;;10.67;9.57;;;;;;;;;;5016920;28;20491;-67
2022/09/21 07:38:47;;;;;;;9.93;9.13;;;;;;;;;;4998991;28;20440;-66
2022/09/21 07:41:14;;;;;;;9.20;8.47;;;;;;;;;;5016733;28;20405;-63
2022/09/21 07:43:40;;;;;;;8.30;7.50;;;;;;;;;;5016603;28;20409;-64
2022/09/21 07:46:08;;;;;;;9.57;8.67;;;;;;;;;;5016537;28;20408;-65
2022/09/21 07:48:34;;;;;;;8.33;7.63;;;;;;;;;;5016528;28;20508;-65
2022/09/21 07:51:04;;;;;;;9.63;8.57;;;;;;;;;;5016597;28;20551;-63
2022/09/21 07:53:31;;;;;;;8.57;7.50;;;;;;;;;;5016343;28;20571;-68
2022/09/21 07:56:03;;;;;;;9.17;7.00;;;;;;;;;;5016492;28;20974;-64
2022/09/21 08:01:14;;;;;;;8.50;6.70;;;;;;;;;;5016385;28;20403;-65
2022/09/21 08:03:40;;;;;;;10.37;6.70;;;;;;;;;;5016263;28;20405;-64
2022/09/21 08:06:08;;;;;;;7.13;6.60;;;;;;;;;;5016135;28;20420;-64
2022/09/21 08:08:34;;;;;;;7.43;6.67;;;;;;;;;;5015968;28;20904;-63
2022/09/21 08:11:03;;;;;;;9.07;6.60;;;;;;;;;;5016397;28;20404;-64
2022/09/21 08:13:29;;;;;;;6.33;5.73;;;;;;;;;;4998449;28;20428;-64
2022/09/21 08:15:59;;;;;;;6.70;6.10;;;;;;;;;;5016139;28;20817;-66
2022/09/21 08:18:25;;;;;;;5.60;5.20;;;;;;;;;;5015904;28;20959;-65
2022/09/21 08:20:56;;;;;;;8.03;5.97;;;;;;;;;;5015927;28;20923;-65
2022/09/21 08:23:22;;;;;;;6.33;5.87;;;;;;;;;;5015893;28;20440;-65
2022/09/21 08:25:48;;;;;;;6.27;5.57;;;;;;;;;;5015910;28;20409;-66
2022/09/21 08:28:14;;;;;;;6.83;5.90;;;;;;;;;;4998242;28;20427;-66
2022/09/21 08:30:40;;;;;;;8.13;5.70;;;;;;;;;;5015757;28;20771;-64
2022/09/21 08:33:07;;;;;;;8.17;5.10;;;;;;;;;;5015760;28;20491;-66
2022/09/21 08:35:34;;;;;;;4.90;4.60;;;;;;;;;;5015956;28;20427;-65
2022/09/21 08:38:00;;;;;;;5.90;4.80;;;;;;;;;;5015584;28;20564;-64
2022/09/21 08:40:26;;;;;;;6.13;4.80;;;;;;;;;;4997953;28;20511;-65
2022/09/21 08:42:59;;;;;;;5.77;5.37;;;;;;;;;;5015598;28;20417;-64
2022/09/21 08:45:31;;;;;;;6.73;4.70;;;;;;;;;;5015780;28;20409;-65
2022/09/21 08:47:58;;;;;;;5.40;4.90;;;;;;;;;;5015285;28;20498;-65
2022/09/21 08:50:33;;;;;;;5.97;4.60;;;;;;;;;;5015305;28;20421;-64
2022/09/21 08:53:06;;;;;;;4.70;4.23;;;;;;;;;;5015088;28;20475;-65
2022/09/21 08:55:33;;;;;;;5.27;4.77;;;;;;;;;;4997705;28;20528;-64
2022/09/21 08:58:00;;;;;;;6.40;5.10;;;;;;;;;;5015148;28;20847;-65
2022/09/21 09:00:26;;;;;;;4.97;4.57;;;;;;;;;;5015274;28;20409;-65
2022/09/21 09:03:11;;;;;;;11.63;5.97;;;;;;;;;;5015145;28;20413;-63
2022/09/21 09:05:38;;;;;;;4.93;4.53;;;;;;;;;;4997504;28;20455;-65
2022/09/21 09:08:18;;;;;;;4.50;4.10;;;;;;;;;;4997522;28;20472;-63
2022/09/21 09:10:44;;;;;;;7.43;4.37;;;;;;;;;;5015297;28;20420;-63
2022/09/21 09:13:13;;;;;;;6.57;4.57;;;;;;;;;;5014963;28;20408;-65
2022/09/21 09:15:38;;;;;;;6.20;4.10;;;;;;;;;;5014968;28;20506;-65
2022/09/21 09:18:07;;;;;;;4.00;3.80;;;;;;;;;;5014891;28;20565;-62
2022/09/21 09:20:35;;;;;;;4.53;3.17;;;;;;;;;;4996597;28;20838;-62
2022/09/21 09:23:13;;;;;;;4.97;2.97;;;;;;;;;;5014874;28;20431;-62
2022/09/21 09:25:41;;;;;;;3.20;2.97;;;;;;;;;;5014718;28;20770;-61
2022/09/21 09:28:20;;;;;;;3.73;3.53;;;;;;;;;;5014761;28;20420;-63
2022/09/21 09:30:49;;;;;;;3.07;2.93;;;;;;;;;;5014720;28;20498;-62
2022/09/21 09:33:27;;;;;;;5.53;5.03;;;;;;;;;;5014668;28;20417;-62
2022/09/21 09:36:12;;;;;;;6.97;5.00;;;;;;;;;;5014706;28;20775;-62
2022/09/21 09:38:56;;;;;;;3.50;3.23;;;;;;;;;;5014513;28;20470;-62
2022/09/21 09:41:41;;;;;;;5.00;3.70;;;;;;;;;;5014748;28;20412;-62
2022/09/21 09:44:07;;;;;;;3.20;3.10;;;;;;;;;;5014507;28;20412;-64
2022/09/21 09:46:33;;;;;;;4.10;2.77;;;;;;;;;;5014498;28;20471;-66
2022/09/21 09:49:18;;;;;;;4.27;2.40;;;;;;;;;;4996706;28;20926;-66
2022/09/21 09:51:45;;;;;;;2.67;2.57;;;;;;;;;;4996499;28;20476;-66
2022/09/21 09:54:13;;;;;;;2.60;2.40;;;;;;;;;;5014550;28;20402;-65
2022/09/21 09:56:40;;;;;;;3.93;2.53;;;;;;;;;;5014444;28;20454;-65
2022/09/21 09:59:10;;;;;;;8.50;7.70;;;;;;;;;;5014218;28;20419;-66
2022/09/21 10:01:37;;;;;;;2.60;2.50;;;;;;;;;;5014181;28;20434;-65
2022/09/21 10:04:08;;;;;;;2.40;2.30;;;;;;;;;;5014162;28;20448;-65
2022/09/21 10:06:34;;;;;;;2.10;2.00;;;;;;;;;;5014061;28;20435;-66
2022/09/21 10:09:00;;;;;;;3.80;3.03;;;;;;;;;;5014327;28;20416;-66
2022/09/21 10:11:36;;;;;;;3.23;2.37;;;;;;;;;;4996354;28;20950;-66
2022/09/21 10:14:14;;;;;;;2.30;2.20;;;;;;;;;;5013934;28;20402;-65
2022/09/21 10:16:40;;;;;;;2.77;2.43;;;;;;;;;;5013845;28;20490;-65
2022/09/21 10:19:13;;;;;;;2.30;2.10;;;;;;;;;;5013980;28;20430;-66
2022/09/21 10:21:42;;;;;;;5.50;2.50;;;;;;;;;;5013843;28;20972;-68
2022/09/21 10:24:27;;;;;;;4.47;2.27;;;;;;;;;;5013740;28;20495;-66
2022/09/21 10:26:55;;;;;;;2.70;2.30;;;;;;;;;;4996148;28;20506;-65
2022/09/21 10:29:21;;;;;;;3.63;2.30;;;;;;;;;;5013994;28;20403;-66
2022/09/21 10:31:56;;;;;;;2.50;2.03;;;;;;;;;;5013691;28;20474;-66
2022/09/21 10:34:23;;;;;;;2.63;2.53;;;;;;;;;;5014009;28;20407;-65
2022/09/21 10:36:50;;;;;;;7.70;7.10;;;;;;;;;;5013592;28;20514;-66
2022/09/21 10:39:19;;;;;;;3.07;2.73;;;;;;;;;;5013625;28;20420;-65
2022/09/21 10:41:50;;;;;;;2.13;2.03;;;;;;;;;;5013542;28;20419;-66
2022/09/21 10:44:17;;;;;;;3.07;2.10;;;;;;;;;;5013530;28;20887;-66
2022/09/21 10:46:44;;;;;;;3.53;1.67;;;;;;;;;;5013663;28;20408;-66
2022/09/21 10:49:23;;;;;;;7.10;1.97;;;;;;;;;;5013615;28;20417;-66
2022/09/21 10:51:50;;;;;;;3.03;2.93;;;;;;;;;;5013349;28;20425;-66
2022/09/21 10:54:27;;;;;;;5.17;2.00;;;;;;;;;;5013669;28;20412;-66
2022/09/21 10:56:55;;;;;;;2.10;2.03;;;;;;;;;;5013294;28;20500;-65
2022/09/21 10:59:21;;;;;;;2.10;2.00;;;;;;;;;;5013440;28;20414;-66
2022/09/21 11:01:48;;;;;;;3.37;1.73;;;;;;;;;;5013476;28;20405;-65
2022/09/21 11:04:18;;;;;;;2.63;1.80;;;;;;;;;;4995812;28;20442;-65
2022/09/21 11:06:45;;;;;;;1.93;1.83;;;;;;;;;;5013342;28;20422;-65
2022/09/21 11:09:14;;;;;;;2.40;1.50;;;;;;;;;;5013395;28;20416;-66
2022/09/21 11:11:51;;;;;;;3.07;1.73;;;;;;;;;;5013361;28;20420;-65
2022/09/21 11:14:36;;;;;;;5.83;1.60;;;;;;;;;;5013503;28;20412;-65
2022/09/21 11:17:22;;;;;;;2.60;1.60;;;;;;;;;;5013235;28;20466;-66
2022/09/21 11:19:54;;;;;;;1.13;1.13;;;;;;;;;;5013276;28;20911;-66
2022/09/21 11:22:20;;;;;;;1.73;1.73;;;;;;;;;;5013237;28;20885;-65
2022/09/21 11:24:45;;;;;;;2.17;1.97;;;;;;;;;;5013260;28;20426;-67
2022/09/21 11:27:27;;;;;;;1.60;1.60;;;;;;;;;;5013348;28;20171;-66
2022/09/21 11:30:13;;;;;;;1.70;1.60;;;;;;;;;;5013248;28;20445;-66
2022/09/21 11:32:55;;;;;;;1.00;1.00;;;;;;;;;;5013091;28;20457;-63
2022/09/21 11:35:27;;;;;;;1.77;1.30;;;;;;;;;;5013045;28;20514;-64
2022/09/21 11:37:56;;;;;;;1.90;1.10;;;;;;;;;;5013118;28;21020;-66
2022/09/21 11:40:31;;;;;;;1.00;1.00;;;;;;;;;;5013133;28;20407;-65
2022/09/21 11:42:57;;;;;;;1.20;1.20;;;;;;;;;;4995364;28;20460;-66
2022/09/21 11:45:42;;;;;;;1.90;1.80;;;;;;;;;;5016393;28;20447;-65
2022/09/21 11:48:18;;;;;;;1.37;1.37;;;;;;;;;;5016683;28;20178;-67
2022/09/21 11:51:03;;;;;;;1.30;1.10;;;;;;;;;;5016819;28;20809;-64
2022/09/21 11:53:48;;;;;;;1.57;1.47;;;;;;;;;;5016365;28;20483;-66
2022/09/21 11:56:14;;;;;;;1.33;1.33;;;;;;;;;;5016517;28;20892;-66
2022/09/21 11:58:43;;;;;;;1.30;1.30;;;;;;;;;;4998898;28;20445;-65
2022/09/21 12:01:16;;;;;;;1.27;1.17;;;;;;;;;;5016353;28;20622;-66
2022/09/21 12:04:02;;;;;;;1.63;1.53;;;;;;;;;;5016366;28;20424;-63
2022/09/21 12:07:00;;;;;;;1.40;1.30;;;;;;;;;;5016561;28;20774;-63
2022/09/21 12:09:49;;;;;;;1.70;1.60;;;;;;;;;;4946404;28;20507;-66
2022/09/21 12:12:25;;;;;;;1.60;1.50;;;;;;;;;;4970696;28;20498;-66
2022/09/21 12:14:56;;;;;;;1.37;1.23;;;;;;;;;;5016194;28;20556;-66
2022/09/21 12:17:39;;;;;;;1.50;1.40;;;;;;;;;;5016543;28;20499;-64
2022/09/21 12:20:11;;;;;;;1.83;1.33;;;;;;;;;;5016035;28;20411;-64
2022/09/21 12:22:43;;;;;;;2.70;1.37;;;;;;;;;;5016210;28;20416;-66
2022/09/21 12:25:18;;;;;;;1.40;1.30;;;;;;;;;;5015919;28;20403;-65
2022/09/21 12:27:52;;;;;;;1.10;1.10;;;;;;;;;;5015923;28;20404;-64
2022/09/21 12:30:22;;;;;;;1.00;1.00;;;;;;;;;;5015854;28;20404;-66
2022/09/21 12:32:51;;;;;;;1.10;1.10;;;;;;;;;;4998102;28;20428;-66
2022/09/21 12:35:20;;;;;;;1.47;1.10;;;;;;;;;;5015733;28;20408;-64
2022/09/21 12:37:49;;;;;;;1.40;1.30;;;;;;;;;;4997906;28;20482;-64
2022/09/21 12:40:27;;;;;;;2.00;1.23;;;;;;;;;;4998262;28;20812;-63
2022/09/21 12:42:56;;;;;;;1.00;1.00;;;;;;;;;;5015619;28;20420;-65
2022/09/21 12:45:28;;;;;;;1.40;1.30;;;;;;;;;;5015547;28;20408;-64
2022/09/21 12:48:06;;;;;;;1.07;1.07;;;;;;;;;;4997906;28;20802;-65
2022/09/21 12:50:39;;;;;;;1.10;1.10;;;;;;;;;;5015429;28;20423;-64
2022/09/21 12:53:05;;;;;;;0.90;0.90;;;;;;;;;;5015256;28;20474;-66
2022/09/21 12:55:48;;;;;;;1.37;1.33;;;;;;;;;;5014351;28;20420;-64
2022/09/21 12:58:33;;;;;;;1.10;1.10;;;;;;;;;;5015261;28;20484;-63
2022/09/21 13:01:05;;;;;;;1.77;1.30;;;;;;;;;;5015243;28;20904;-65
2022/09/21 13:03:52;;;;;;;1.23;1.10;;;;;;;;;;5015226;28;20408;-66
2022/09/21 13:06:44;;;;;;;1.20;1.10;;;;;;;;;;5015297;28;20776;-65
2022/09/21 13:09:13;;;;;;;1.20;1.20;;;;;;;;;;5015067;28;20887;-65
2022/09/21 13:11:59;;;;;;;1.23;1.23;;;;;;;;;;5015079;28;20416;-66
2022/09/21 13:14:27;;;;;;;5.33;1.50;;;;;;;;;;5014645;28;20438;-65
2022/09/21 13:16:56;;;;;;;1.57;1.50;;;;;;;;;;5014862;28;20467;-63
2022/09/21 13:19:23;;;;;;;0.77;0.77;;;;;;;;;;5015013;28;20412;-64
2022/09/21 13:22:13;;;;;;;1.10;1.00;;;;;;;;;;5014761;28;20416;-64
2022/09/21 13:24:41;;;;;;;6.60;6.20;;;;;;;;;;5015062;28;20400;-64
2022/09/21 13:27:07;;;;;;;1.70;1.70;;;;;;;;;;4997117;28;20423;-64
2022/09/21 13:29:34;;;;;;;1.60;1.50;;;;;;;;;;5014760;28;20410;-66
2022/09/21 13:32:12;;;;;;;0.87;0.87;;;;;;;;;;5014767;28;20417;-65
2022/09/21 13:34:40;;;;;;;5.90;1.10;;;;;;;;;;5014571;28;20892;-65
2022/09/21 13:37:16;;;;;;;1.07;1.07;;;;;;;;;;5014587;28;20533;-63
2022/09/21 13:39:44;;;;;;;2.00;1.20;;;;;;;;;;5014641;28;20396;-63
2022/09/21 13:42:29;;;;;;;1.37;1.23;;;;;;;;;;5014467;28;20408;-64
2022/09/21 13:44:56;;;;;;;1.00;1.00;;;;;;;;;;5014440;28;20419;-64
2022/09/21 13:47:31;;;;;;;1.13;0.97;;;;;;;;;;4980891;28;20424;-62
2022/09/21 13:49:57;;;;;;;1.20;1.10;;;;;;;;;;5014315;28;20401;-66
2022/09/21 13:52:43;;;;;;;1.07;1.07;;;;;;;;;;5014303;28;20832;-66
2022/09/21 13:55:23;;;;;;;1.13;1.03;;;;;;;;;;5014318;28;20409;-64
2022/09/21 13:57:53;;;;;;;1.20;1.20;;;;;;;;;;5014119;28;20473;-66
2022/09/21 14:00:19;;;;;;;2.70;1.07;;;;;;;;;;5014302;28;20410;-64
2022/09/21 14:02:51;;;;;;;9.93;1.00;;;;;;;;;;5014113;28;20408;-64
2022/09/21 14:05:17;;;;;;;2.10;0.90;;;;;;;;;;5014437;28;20495;-63
2022/09/21 14:07:45;;;;;;;1.10;1.10;;;;;;;;;;5013790;28;21079;-65
2022/09/21 14:10:17;;;;;;;3.50;1.13;;;;;;;;;;4996457;28;20429;-66
2022/09/21 14:12:43;;;;;;;1.10;0.90;;;;;;;;;;4996399;28;20419;-65
2022/09/21 14:15:16;;;;;;;0.97;0.97;;;;;;;;;;4996350;28;20421;-64
2022/09/21 14:17:42;;;;;;;2.70;0.90;;;;;;;;;;5013902;28;20470;-64
2022/09/21 14:20:26;;;;;;;1.50;1.40;;;;;;;;;;4996322;28;20997;-66
2022/09/21 14:23:10;;;;;;;1.43;1.20;;;;;;;;;;5013922;28;20501;-65
2022/09/21 14:25:49;;;;;;;1.17;1.10;;;;;;;;;;5013767;28;20429;-63
2022/09/21 14:28:17;;;;;;;2.20;1.30;;;;;;;;;;5013824;28;20410;-65
2022/09/21 14:30:48;;;;;;;1.90;1.17;;;;;;;;;;4996335;28;20766;-66
2022/09/21 14:33:34;;;;;;;0.93;0.93;;;;;;;;;;5013869;28;20398;-63
2022/09/21 14:36:06;;;;;;;1.10;0.97;;;;;;;;;;5013448;28;20425;-63
2022/09/21 14:38:39;;;;;;;1.00;0.83;;;;;;;;;;5013759;28;20473;-63
2022/09/21 14:41:07;;;;;;;2.30;0.90;;;;;;;;;;5013992;28;20472;-62
2022/09/21 14:43:35;;;;;;;1.43;1.00;;;;;;;;;;5013918;28;20422;-63
2022/09/21 14:46:20;;;;;;;0.87;0.87;;;;;;;;;;5013703;28;20434;-62
2022/09/21 14:48:58;;;;;;;1.43;1.00;;;;;;;;;;5013610;28;20409;-63
2022/09/21 14:51:35;;;;;;;0.90;0.90;;;;;;;;;;5013932;28;20931;-63
2022/09/21 14:54:16;;;;;;;1.80;0.97;;;;;;;;;;5013585;28;20477;-63
2022/09/21 14:56:50;;;;;;;3.60;0.70;;;;;;;;;;5013477;28;20457;-63
2022/09/21 14:59:22;;;;;;;1.37;1.30;;;;;;;;;;5013565;28;20413;-66
2022/09/21 15:02:02;;;;;;;1.10;0.80;;;;;;;;;;5013429;28;20397;-63
2022/09/21 15:04:37;;;;;;;1.10;1.10;;;;;;;;;;4995884;28;20458;-63